createdAt,value
2018-12-15T00:00:13.370Z,70.80
2018-12-15T00:02:41.632Z,70.60
2018-12-15T00:05:09.806Z,70.30
2018-12-15T00:07:37.850Z,70.40
2018-12-15T00:10:06.258Z,71.40
2018-12-15T00:12:34.315Z,70.60
2018-12-15T00:15:02.493Z,70.80
2018-12-15T00:17:30.592Z,70.30
2018-12-15T00:19:58.649Z,70.60
2018-12-15T00:22:26.705Z,70.90
2018-12-15T00:24:54.785Z,70.90
2018-12-15T00:27:22.861Z,70.90
2018-12-15T00:29:50.925Z,70.90
2018-12-15T00:32:19.028Z,70.80
2018-12-15T00:34:47.126Z,71.00
2018-12-15T00:37:15.312Z,71.20
2018-12-15T00:39:43.341Z,71.60
2018-12-15T00:42:11.642Z,71.60
2018-12-15T00:44:39.734Z,71.60
2018-12-15T00:47:13.587Z,71.40
2018-12-15T00:49:37.924Z,71.60
2018-12-15T00:52:05.995Z,71.60
2018-12-15T00:54:34.024Z,71.50
2018-12-15T00:57:02.217Z,71.70
2018-12-15T00:59:30.241Z,71.60
2018-12-15T01:01:58.358Z,71.40
2018-12-15T01:04:26.424Z,71.20
2018-12-15T01:06:54.502Z,71.30
2018-12-15T01:09:22.862Z,71.50
2018-12-15T01:11:50.934Z,71.80
2018-12-15T01:14:18.987Z,71.60
2018-12-15T01:16:47.210Z,71.60
2018-12-15T01:19:15.266Z,71.50
2018-12-15T01:21:43.374Z,71.20
2018-12-15T01:24:11.468Z,71.40
2018-12-15T01:26:39.642Z,71.10
2018-12-15T01:29:07.692Z,71.10
2018-12-15T01:31:35.890Z,71.20
2018-12-15T01:34:03.931Z,71.40
2018-12-15T01:36:32.038Z,71.50
2018-12-15T01:39:00.077Z,71.50
2018-12-15T01:41:28.156Z,71.70
2018-12-15T01:43:56.235Z,71.50
2018-12-15T01:46:24.315Z,71.40
2018-12-15T01:48:52.377Z,71.20
2018-12-15T01:51:20.449Z,71.30
2018-12-15T01:53:48.549Z,71.50
2018-12-15T01:56:16.624Z,71.40
2018-12-15T01:58:44.720Z,71.20
2018-12-15T02:01:12.775Z,71.00
2018-12-15T02:03:40.882Z,71.00
2018-12-15T02:06:08.990Z,70.80
2018-12-15T02:08:37.161Z,70.70
2018-12-15T02:11:05.334Z,70.80
2018-12-15T02:13:33.565Z,70.90
2018-12-15T02:16:01.738Z,70.60
2018-12-15T02:18:29.778Z,70.70
2018-12-15T02:20:57.835Z,70.80
2018-12-15T02:23:25.918Z,70.80
2018-12-15T02:25:53.979Z,70.80
2018-12-15T02:28:22.049Z,71.00
2018-12-15T02:30:50.112Z,71.00
2018-12-15T02:33:18.199Z,70.90
2018-12-15T02:35:46.343Z,70.80
2018-12-15T02:38:14.498Z,70.70
2018-12-15T02:40:42.630Z,70.80
2018-12-15T02:43:10.704Z,70.80
2018-12-15T02:45:38.830Z,70.70
2018-12-15T02:48:06.917Z,70.70
2018-12-15T02:50:34.982Z,71.60
2018-12-15T02:53:03.055Z,71.40
2018-12-15T02:55:31.664Z,70.60
2018-12-15T02:57:59.712Z,70.70
2018-12-15T03:00:27.866Z,70.60
2018-12-15T03:02:55.980Z,70.60
2018-12-15T03:05:24.025Z,70.80
2018-12-15T03:07:52.103Z,70.70
2018-12-15T03:10:20.236Z,70.50
2018-12-15T03:12:48.380Z,70.60
2018-12-15T03:15:16.479Z,70.50
2018-12-15T03:17:48.898Z,70.90
2018-12-15T03:20:14.574Z,70.70
2018-12-15T03:22:42.622Z,70.90
2018-12-15T03:25:10.697Z,71.10
2018-12-15T03:27:38.782Z,71.30
2018-12-15T03:30:07.048Z,71.10
2018-12-15T03:32:35.201Z,71.00
2018-12-15T03:35:03.420Z,71.00
2018-12-15T03:37:31.681Z,71.00
2018-12-15T03:39:59.727Z,70.80
2018-12-15T03:42:27.799Z,70.80
2018-12-15T03:44:55.955Z,71.00
2018-12-15T03:47:24.025Z,71.20
2018-12-15T03:49:52.102Z,71.20
2018-12-15T03:52:20.145Z,71.20
2018-12-15T03:54:48.212Z,71.30
2018-12-15T03:57:16.316Z,71.50
2018-12-15T03:59:44.650Z,71.70
2018-12-15T04:02:13.056Z,71.80
2018-12-15T04:04:41.443Z,71.60
2018-12-15T04:07:09.493Z,71.40
2018-12-15T04:09:37.587Z,71.30
2018-12-15T04:12:05.612Z,71.60
2018-12-15T04:14:33.920Z,71.80
2018-12-15T04:17:02.100Z,71.60
2018-12-15T04:19:30.140Z,71.60
2018-12-15T04:24:53.692Z,71.80
2018-12-15T04:27:21.779Z,71.70
2018-12-15T04:29:49.925Z,71.80
2018-12-15T04:32:24.550Z,72.20
2018-12-15T04:34:52.621Z,71.60
2018-12-15T04:37:20.691Z,71.80
2018-12-15T04:39:48.826Z,72.00
2018-12-15T04:42:17.267Z,72.00
2018-12-15T04:44:45.369Z,71.80
2018-12-15T04:47:14.045Z,71.80
2018-12-15T04:49:42.075Z,71.60
2018-12-15T04:52:10.218Z,71.80
2018-12-15T04:54:38.336Z,71.50
2018-12-15T04:57:06.491Z,71.60
2018-12-15T04:59:34.583Z,71.80
2018-12-15T05:02:02.823Z,71.80
2018-12-15T05:04:30.924Z,71.80
2018-12-15T05:06:59.019Z,71.70
2018-12-15T05:09:27.156Z,71.60
2018-12-15T05:11:55.275Z,71.40
2018-12-15T05:14:23.385Z,71.40
2018-12-15T05:16:51.493Z,71.40
2018-12-15T05:19:19.587Z,71.40
2018-12-15T05:21:47.657Z,71.50
2018-12-15T05:24:15.725Z,71.80
2018-12-15T05:26:43.804Z,72.50
2018-12-15T05:29:11.869Z,71.90
2018-12-15T05:31:39.931Z,71.90
2018-12-15T05:34:08.086Z,71.80
2018-12-15T05:36:36.214Z,71.90
2018-12-15T05:39:05.716Z,72.00
2018-12-15T05:41:33.825Z,72.00
2018-12-15T05:44:01.948Z,72.00
2018-12-15T05:46:30.003Z,72.10
2018-12-15T05:48:58.074Z,72.10
2018-12-15T05:51:26.141Z,72.00
2018-12-15T05:53:54.239Z,72.30
2018-12-15T05:56:22.300Z,72.30
2018-12-15T05:58:50.388Z,72.30
2018-12-15T06:01:18.443Z,72.20
2018-12-15T06:03:46.533Z,72.30
2018-12-15T06:06:14.582Z,72.40
2018-12-15T06:08:43.135Z,72.20
2018-12-15T06:11:11.222Z,72.20
2018-12-15T06:13:39.295Z,72.10
2018-12-15T06:16:07.369Z,72.40
2018-12-15T06:18:35.429Z,72.50
2018-12-15T06:21:03.576Z,72.50
2018-12-15T06:23:31.748Z,72.30
2018-12-15T06:25:59.908Z,72.10
2018-12-15T06:28:27.988Z,72.10
2018-12-15T06:30:56.334Z,72.30
2018-12-15T06:33:24.415Z,72.30
2018-12-15T06:35:52.481Z,72.70
2018-12-15T06:38:20.627Z,71.90
2018-12-15T06:40:48.657Z,71.90
2018-12-15T06:43:17.075Z,71.70
2018-12-15T06:45:45.931Z,71.50
2018-12-15T06:48:13.963Z,71.50
2018-12-15T06:50:42.081Z,71.50
2018-12-15T06:53:10.135Z,72.20
2018-12-15T06:55:38.195Z,71.60
2018-12-15T06:58:06.273Z,71.60
2018-12-15T07:00:34.435Z,71.40
2018-12-15T07:03:02.487Z,71.30
2018-12-15T07:05:30.571Z,71.10
2018-12-15T07:07:58.635Z,71.00
2018-12-15T07:10:26.750Z,71.00
2018-12-15T07:12:54.866Z,71.00
2018-12-15T07:15:22.939Z,71.10
2018-12-15T07:17:51.011Z,71.20
2018-12-15T07:20:19.081Z,71.20
2018-12-15T07:22:47.132Z,71.20
2018-12-15T07:25:15.244Z,71.00
2018-12-15T07:27:43.339Z,70.90
2018-12-15T07:30:11.563Z,70.80
2018-12-15T07:32:39.583Z,70.60
2018-12-15T07:35:07.657Z,70.60
2018-12-15T07:37:35.722Z,70.30
2018-12-15T07:40:04.613Z,70.00
2018-12-15T07:42:32.657Z,69.40
2018-12-15T07:45:00.795Z,68.90
2018-12-15T07:47:29.009Z,68.50
2018-12-15T07:49:57.050Z,68.40
2018-12-15T07:52:25.378Z,68.30
2018-12-15T07:54:53.470Z,68.30
2018-12-15T07:57:21.546Z,68.10
2018-12-15T07:59:49.596Z,68.10
2018-12-15T08:02:17.650Z,67.80
2018-12-15T08:04:45.724Z,67.60
2018-12-15T08:07:14.060Z,67.30
2018-12-15T08:09:42.270Z,67.10
2018-12-15T08:12:16.215Z,66.90
2018-12-15T08:14:44.393Z,67.10
2018-12-15T08:17:12.477Z,66.80
2018-12-15T08:19:40.660Z,66.50
2018-12-15T08:22:08.826Z,66.20
2018-12-15T08:24:36.868Z,65.80
2018-12-15T08:27:04.954Z,65.70
2018-12-15T08:29:33.010Z,65.60
2018-12-15T08:32:01.084Z,65.50
2018-12-15T08:34:29.128Z,65.30
2018-12-15T08:36:57.292Z,65.10
2018-12-15T08:39:25.376Z,65.00
2018-12-15T08:41:53.419Z,65.40
2018-12-15T08:44:21.493Z,64.70
2018-12-15T08:46:49.581Z,64.40
2018-12-15T08:49:17.642Z,65.20
2018-12-15T08:51:45.704Z,64.20
2018-12-15T08:54:13.747Z,63.90
2018-12-15T08:56:41.898Z,63.70
2018-12-15T08:59:10.023Z,63.30
2018-12-15T09:01:38.205Z,63.00
2018-12-15T09:04:06.224Z,63.10
2018-12-15T09:06:34.348Z,62.20
2018-12-15T09:09:02.423Z,61.80
2018-12-15T09:11:30.558Z,61.20
2018-12-15T09:13:58.700Z,61.40
2018-12-15T09:16:26.929Z,60.60
2018-12-15T09:18:55.067Z,60.40
2018-12-15T09:21:23.128Z,60.20
2018-12-15T09:23:51.215Z,60.20
2018-12-15T09:26:19.293Z,60.10
2018-12-15T09:28:47.357Z,60.10
2018-12-15T09:31:15.468Z,60.10
2018-12-15T09:33:43.539Z,60.20
2018-12-15T09:36:11.774Z,60.10
2018-12-15T09:38:52.146Z,60.10
2018-12-15T09:41:20.304Z,59.90
2018-12-15T09:43:48.380Z,59.60
2018-12-15T09:46:16.536Z,59.80
2018-12-15T09:48:44.652Z,59.80
2018-12-15T09:51:12.722Z,59.70
2018-12-15T09:53:40.768Z,59.40
2018-12-15T09:56:08.862Z,59.80
2018-12-15T09:58:36.949Z,58.90
2018-12-15T10:01:05.109Z,58.70
2018-12-15T10:03:33.197Z,58.70
2018-12-15T10:06:01.377Z,58.50
2018-12-15T10:08:29.446Z,58.30
2018-12-15T10:10:57.517Z,58.30
2018-12-15T10:13:25.555Z,58.40
2018-12-15T10:15:53.834Z,58.10
2018-12-15T10:18:21.998Z,58.00
2018-12-15T10:20:50.070Z,57.80
2018-12-15T10:23:18.143Z,57.80
2018-12-15T10:25:46.213Z,57.80
2018-12-15T10:28:15.087Z,57.80
2018-12-15T10:30:49.019Z,57.70
2018-12-15T10:33:17.181Z,57.80
2018-12-15T10:35:45.230Z,57.90
2018-12-15T10:38:13.357Z,57.80
2018-12-15T10:40:41.453Z,58.00
2018-12-15T10:43:09.565Z,57.60
2018-12-15T10:45:37.635Z,57.80
2018-12-15T10:48:05.713Z,57.80
2018-12-15T10:50:33.732Z,57.90
2018-12-15T10:53:01.819Z,57.80
2018-12-15T10:55:29.889Z,58.00
2018-12-15T10:57:58.064Z,58.40
2018-12-15T11:03:24.135Z,57.80
2018-12-15T11:05:52.158Z,57.60
2018-12-15T11:08:20.269Z,57.50
2018-12-15T11:10:48.320Z,57.60
2018-12-15T11:13:16.420Z,57.60
2018-12-15T11:15:44.471Z,57.50
2018-12-15T11:18:12.648Z,57.40
2018-12-15T11:20:40.719Z,57.50
2018-12-15T11:23:08.873Z,57.40
2018-12-15T11:25:36.909Z,57.40
2018-12-15T11:28:05.007Z,56.70
2018-12-15T11:30:33.084Z,56.40
2018-12-15T11:33:01.252Z,56.30
2018-12-15T11:35:29.324Z,56.50
2018-12-15T11:37:57.398Z,56.40
2018-12-15T11:40:25.443Z,56.50
2018-12-15T11:42:53.502Z,56.80
2018-12-15T11:45:21.643Z,56.80
2018-12-15T11:47:49.707Z,56.90
2018-12-15T11:50:17.884Z,56.80
2018-12-15T11:52:45.940Z,57.00
2018-12-15T11:55:13.998Z,57.00
2018-12-15T11:57:42.131Z,57.00
2018-12-15T12:00:10.581Z,57.00
2018-12-15T12:02:38.661Z,57.00
2018-12-15T12:05:06.862Z,57.00
2018-12-15T12:07:34.989Z,57.10
2018-12-15T12:10:03.264Z,57.30
2018-12-15T12:12:31.938Z,57.50
2018-12-15T12:15:00.184Z,57.70
2018-12-15T12:17:28.284Z,58.20
2018-12-15T12:19:56.348Z,57.40
2018-12-15T12:22:24.446Z,57.30
2018-12-15T12:24:52.619Z,57.30
2018-12-15T12:27:20.676Z,57.30
2018-12-15T12:29:48.763Z,57.30
2018-12-15T12:32:17.575Z,57.40
2018-12-15T12:34:45.651Z,57.40
2018-12-15T12:37:13.831Z,57.20
2018-12-15T12:39:41.967Z,56.90
2018-12-15T12:42:10.036Z,56.70
2018-12-15T12:44:38.223Z,56.80
2018-12-15T12:47:06.295Z,56.80
2018-12-15T12:49:34.365Z,56.80
2018-12-15T12:52:02.438Z,56.90
2018-12-15T12:54:30.574Z,57.00
2018-12-15T12:56:58.608Z,57.10
2018-12-15T12:59:26.686Z,57.00
2018-12-15T13:01:54.789Z,56.80
2018-12-15T13:04:22.903Z,56.80
2018-12-15T13:06:51.479Z,56.80
2018-12-15T13:09:19.643Z,56.70
2018-12-15T13:11:47.715Z,56.90
2018-12-15T13:14:15.810Z,56.80
2018-12-15T13:16:43.839Z,56.80
2018-12-15T13:19:11.964Z,56.90
2018-12-15T13:21:39.999Z,56.80
2018-12-15T13:24:08.091Z,56.90
2018-12-15T13:26:36.174Z,56.80
2018-12-15T13:29:04.317Z,56.30
2018-12-15T13:31:32.491Z,56.30
2018-12-15T13:34:00.518Z,56.10
2018-12-15T13:36:28.599Z,55.70
2018-12-15T13:38:56.696Z,55.60
2018-12-15T13:41:24.813Z,55.50
2018-12-15T13:43:52.895Z,55.40
2018-12-15T13:46:20.991Z,55.50
2018-12-15T13:48:49.050Z,55.60
2018-12-15T13:51:17.159Z,55.70
2018-12-15T13:53:45.323Z,55.70
2018-12-15T13:56:13.385Z,55.70
2018-12-15T13:58:41.455Z,55.80
2018-12-15T14:01:09.546Z,55.80
2018-12-15T14:03:37.622Z,55.70
2018-12-15T14:06:05.757Z,55.60
2018-12-15T14:08:33.826Z,55.70
2018-12-15T14:11:02.209Z,55.60
2018-12-15T14:13:30.246Z,55.70
2018-12-15T14:15:58.308Z,55.70
2018-12-15T14:18:26.377Z,55.70
2018-12-15T14:20:54.463Z,55.90
2018-12-15T14:23:22.594Z,56.00
2018-12-15T14:25:50.634Z,56.00
2018-12-15T14:28:18.840Z,56.90
2018-12-15T14:30:46.867Z,56.40
2018-12-15T14:33:14.998Z,56.60
2018-12-15T14:35:43.061Z,56.80
2018-12-15T14:38:11.242Z,56.90
2018-12-15T14:40:39.432Z,56.80
2018-12-15T14:43:07.557Z,56.90
2018-12-15T14:45:35.600Z,57.00
2018-12-15T14:48:03.745Z,56.90
2018-12-15T14:50:31.971Z,57.00
2018-12-15T14:53:00.004Z,57.00
2018-12-15T14:55:28.100Z,57.10
2018-12-15T14:57:56.282Z,57.20
2018-12-15T15:00:24.454Z,57.20
2018-12-15T15:02:52.536Z,57.30
2018-12-15T15:05:20.605Z,57.40
2018-12-15T15:07:48.675Z,57.50
2018-12-15T15:10:16.871Z,57.60
2018-12-15T15:12:44.960Z,57.40
2018-12-15T15:15:13.026Z,57.30
2018-12-15T15:17:41.096Z,57.30
2018-12-15T15:20:09.705Z,57.30
2018-12-15T15:22:37.794Z,57.50
2018-12-15T15:25:06.832Z,57.50
2018-12-15T15:27:34.977Z,57.70
2018-12-15T15:30:04.749Z,57.80
2018-12-15T15:32:33.163Z,57.20
2018-12-15T15:35:01.220Z,57.90
2018-12-15T15:37:29.315Z,58.20
2018-12-15T15:39:57.487Z,58.40
2018-12-15T15:42:25.529Z,58.70
2018-12-15T15:44:53.731Z,58.90
2018-12-15T15:47:21.761Z,59.20
2018-12-15T15:49:49.879Z,59.30
2018-12-15T15:52:18.054Z,59.50
2018-12-15T15:54:46.127Z,59.50
2018-12-15T15:57:14.167Z,59.50
2018-12-15T15:59:42.370Z,59.70
2018-12-15T16:02:10.467Z,60.00
2018-12-15T16:04:38.562Z,60.00
2018-12-15T16:07:06.623Z,60.10
2018-12-15T16:09:34.817Z,60.20
2018-12-15T16:12:02.892Z,60.40
2018-12-15T16:14:30.951Z,60.50
2018-12-15T16:16:59.017Z,60.70
2018-12-15T16:19:27.089Z,60.60
2018-12-15T16:21:55.460Z,60.70
2018-12-15T16:24:23.596Z,60.80
2018-12-15T16:26:51.679Z,61.20
2018-12-15T16:29:19.791Z,61.20
2018-12-15T16:31:47.909Z,61.20
2018-12-15T16:34:15.981Z,61.20
2018-12-15T16:36:44.023Z,61.10
2018-12-15T16:39:12.127Z,61.10
2018-12-15T16:41:42.376Z,60.90
2018-12-15T16:44:10.244Z,60.80
2018-12-15T16:46:38.422Z,61.00
2018-12-15T16:49:06.479Z,61.30
2018-12-15T16:51:34.786Z,61.50
2018-12-15T16:54:02.915Z,61.50
2018-12-15T16:56:30.956Z,61.60
2018-12-15T16:58:59.065Z,62.50
2018-12-15T17:01:27.256Z,61.80
2018-12-15T17:03:55.310Z,61.90
2018-12-15T17:06:23.385Z,62.00
2018-12-15T17:08:51.445Z,62.20
2018-12-15T17:11:19.587Z,62.10
2018-12-15T17:13:47.719Z,62.50
2018-12-15T17:16:15.767Z,62.50
2018-12-15T17:18:43.817Z,62.60
2018-12-15T17:21:11.893Z,62.70
2018-12-15T17:23:40.008Z,62.60
2018-12-15T17:26:08.284Z,62.70
2018-12-15T17:28:36.311Z,62.70
2018-12-15T17:31:04.382Z,62.70
2018-12-15T17:33:32.472Z,62.70
2018-12-15T17:36:00.541Z,62.50
2018-12-15T17:38:28.700Z,62.50
2018-12-15T17:40:56.745Z,62.40
2018-12-15T17:43:24.818Z,62.50
2018-12-15T17:45:52.892Z,62.80
2018-12-15T17:48:20.986Z,62.80
2018-12-15T17:50:49.048Z,62.90
2018-12-15T17:53:17.133Z,63.00
2018-12-15T17:55:45.259Z,63.10
2018-12-15T17:58:14.793Z,63.00
2018-12-15T18:00:43.789Z,63.50
2018-12-15T18:03:11.854Z,62.80
2018-12-15T18:05:39.937Z,62.80
2018-12-15T18:08:08.472Z,62.70
2018-12-15T18:10:36.607Z,62.70
2018-12-15T18:13:04.635Z,62.60
2018-12-15T18:15:32.762Z,62.70
2018-12-15T18:18:00.938Z,62.60
2018-12-15T18:20:29.008Z,62.60
2018-12-15T18:22:57.103Z,62.70
2018-12-15T18:25:25.230Z,62.70
2018-12-15T18:27:53.400Z,62.90
2018-12-15T18:30:21.474Z,62.90
2018-12-15T18:32:49.623Z,62.90
2018-12-15T18:35:17.895Z,63.00
2018-12-15T18:37:45.926Z,62.90
2018-12-15T18:40:13.984Z,62.90
2018-12-15T18:42:42.076Z,62.80
2018-12-15T18:45:10.274Z,62.90
2018-12-15T18:47:38.344Z,63.10
2018-12-15T18:50:07.674Z,63.10
2018-12-15T18:52:35.736Z,63.10
2018-12-15T18:55:04.536Z,62.90
2018-12-15T18:57:32.595Z,63.20
2018-12-15T19:00:00.659Z,63.40
2018-12-15T19:02:28.727Z,63.50
2018-12-15T19:04:56.843Z,63.40
2018-12-15T19:07:25.009Z,63.40
2018-12-15T19:09:53.187Z,63.30
2018-12-15T19:12:21.809Z,63.30
2018-12-15T19:14:50.013Z,63.40
2018-12-15T19:17:18.140Z,63.80
2018-12-15T19:19:46.254Z,63.80
2018-12-15T19:22:14.286Z,63.60
2018-12-15T19:24:42.376Z,63.70
2018-12-15T19:27:10.487Z,63.60
2018-12-15T19:29:38.530Z,63.80
2018-12-15T19:32:06.590Z,63.90
2018-12-15T19:34:34.702Z,64.10
2018-12-15T19:37:02.777Z,64.20
2018-12-15T19:39:30.848Z,64.20
2018-12-15T19:41:58.905Z,64.40
2018-12-15T19:44:26.986Z,64.80
2018-12-15T19:46:55.067Z,64.70
2018-12-15T19:49:23.130Z,65.00
2018-12-15T19:51:51.269Z,65.00
2018-12-15T19:54:19.309Z,64.90
2018-12-15T19:56:47.420Z,65.20
2018-12-15T19:59:15.590Z,65.10
2018-12-15T20:01:43.658Z,65.10
2018-12-15T20:04:11.819Z,65.10
2018-12-15T20:06:39.844Z,65.20
2018-12-15T20:09:08.002Z,65.20
2018-12-15T20:11:36.119Z,65.40
2018-12-15T20:14:04.176Z,65.50
2018-12-15T20:16:32.445Z,65.20
2018-12-15T20:19:00.574Z,65.50
2018-12-15T20:21:28.656Z,65.60
2018-12-15T20:23:56.748Z,65.40
2018-12-15T20:26:24.948Z,65.30
2018-12-15T20:28:53.081Z,65.30
2018-12-15T20:31:21.142Z,65.30
2018-12-15T20:33:49.221Z,65.90
2018-12-15T20:36:17.291Z,65.20
2018-12-15T20:38:45.377Z,64.90
2018-12-15T20:41:13.448Z,64.70
2018-12-15T20:43:41.604Z,64.90
2018-12-15T20:46:09.778Z,65.10
2018-12-15T20:48:37.852Z,65.30
2018-12-15T20:51:05.920Z,65.40
2018-12-15T20:53:34.011Z,65.60
2018-12-15T20:56:02.098Z,65.70
2018-12-15T20:58:30.181Z,65.80
2018-12-15T21:00:58.381Z,65.70
2018-12-15T21:03:26.447Z,65.70
2018-12-15T21:05:54.518Z,65.80
2018-12-15T21:08:22.599Z,65.80
2018-12-15T21:10:50.706Z,65.60
2018-12-15T21:13:18.824Z,65.50
2018-12-15T21:15:48.925Z,65.50
2018-12-15T21:18:16.990Z,65.40
2018-12-15T21:20:45.085Z,64.90
2018-12-15T21:23:13.239Z,65.40
2018-12-15T21:25:41.304Z,65.60
2018-12-15T21:28:09.380Z,65.50
2018-12-15T21:30:37.555Z,65.60
2018-12-15T21:33:05.583Z,65.60
2018-12-15T21:35:33.659Z,65.60
2018-12-15T21:38:01.713Z,65.30
2018-12-15T21:40:29.790Z,65.40
2018-12-15T21:42:57.954Z,65.60
2018-12-15T21:45:25.979Z,65.40
2018-12-15T21:47:57.593Z,65.30
2018-12-15T21:50:24.127Z,65.40
2018-12-15T21:52:52.283Z,65.60
2018-12-15T21:55:20.355Z,65.90
2018-12-15T21:57:48.426Z,66.60
2018-12-15T22:00:16.493Z,65.80
2018-12-15T22:02:44.617Z,65.80
2018-12-15T22:05:12.695Z,65.70
2018-12-15T22:07:40.968Z,65.60
2018-12-15T22:10:09.247Z,65.60
2018-12-15T22:12:37.301Z,65.50
2018-12-15T22:15:05.818Z,65.40
2018-12-15T22:17:33.991Z,65.50
2018-12-15T22:20:02.267Z,65.70
2018-12-15T22:22:30.351Z,65.60
2018-12-15T22:24:58.463Z,65.40
2018-12-15T22:27:26.549Z,65.50
2018-12-15T22:29:54.642Z,65.70
2018-12-15T22:32:23.561Z,65.50
2018-12-15T22:34:51.657Z,65.60
2018-12-15T22:37:19.780Z,65.50
2018-12-15T22:39:47.928Z,65.50
2018-12-15T22:42:16.108Z,65.50
2018-12-15T22:44:44.196Z,65.50
2018-12-15T22:47:12.351Z,65.40
2018-12-15T22:49:40.581Z,65.40
2018-12-15T22:52:09.892Z,65.40
2018-12-15T22:54:38.236Z,65.40
2018-12-15T22:57:06.300Z,65.50
2018-12-15T22:59:34.472Z,65.70
2018-12-15T23:02:02.647Z,65.60
2018-12-15T23:04:30.761Z,65.60
2018-12-15T23:06:58.821Z,65.40
2018-12-15T23:09:27.006Z,65.20
2018-12-15T23:11:55.187Z,65.60
2018-12-15T23:14:23.212Z,66.00
2018-12-15T23:16:51.338Z,66.30
2018-12-15T23:19:19.413Z,67.00
2018-12-15T23:21:47.482Z,67.30
2018-12-15T23:26:50.103Z,67.60
2018-12-15T23:29:18.217Z,67.80
2018-12-15T23:31:46.285Z,67.80
2018-12-15T23:34:14.351Z,67.80
2018-12-15T23:36:42.556Z,67.90
2018-12-15T23:39:10.594Z,68.10
2018-12-15T23:41:38.668Z,68.10
2018-12-15T23:44:06.837Z,68.30
2018-12-15T23:46:34.948Z,68.30
2018-12-15T23:49:03.023Z,68.30
2018-12-15T23:51:31.262Z,68.30
2018-12-15T23:53:59.314Z,68.30
2018-12-15T23:56:27.393Z,68.50
2018-12-15T23:58:55.460Z,68.70
